Little Sauk, Minnesota
Current Conditions -  °F | °C
As of 4:42 PM on Tuesday 21 Oct 2014 (Local Time) from K14Y Reporting Station
Clear Clear  
Wind Chill: 55°   Ceiling: Unl
Heat Index: 55°   Visibility: 10mi
Dew Point: 39°   Wind: 10mph
Humidity: 54%   Direction: 120°ESE
Pressure: 30.07"   Gusts: 21mph
Location:  45.9633°N, 94.9343°W
Report Text: K14Y 212142Z AUTO 12009G18KT 10SM CLR 13/04 A3007 RMK AO2
Loading
Personal Weather Stations






























Interactive Weather Map
Tropical Storm Tracking
New forecast layout! Learn more

10-Day Weather Forecast

Advertisements
Track Severe Weather on mobile